sensor_id;sensor_type;location;lat;lon;timestamp;pressure;altitude;pressure_sealevel;temperature;humidity
60337;BME280;46978;50.288;28.624;2023-08-06T00:01:05;98411.13;;;22.65;69.37
60337;BME280;46978;50.288;28.624;2023-08-06T00:02:12;98418.08;;;22.66;69.31
60337;BME280;46978;50.288;28.624;2023-08-06T00:03:16;98414.61;;;22.66;69.66
60337;BME280;46978;50.288;28.624;2023-08-06T00:04:27;98414.48;;;22.67;69.34
60337;BME280;46978;50.288;28.624;2023-08-06T00:05:35;98417.83;;;22.69;69.41
60337;BME280;46978;50.288;28.624;2023-08-06T00:06:42;98410.88;;;22.68;69.43
60337;BME280;46978;50.288;28.624;2023-08-06T00:07:53;98416.04;;;22.70;69.42
60337;BME280;46978;50.288;28.624;2023-08-06T00:09:03;98420.34;;;22.71;69.48
60337;BME280;46978;50.288;28.624;2023-08-06T00:10:11;98412.41;;;22.71;69.54
60337;BME280;46978;50.288;28.624;2023-08-06T00:11:14;98415.05;;;22.71;69.52
60337;BME280;46978;50.288;28.624;2023-08-06T00:12:21;98415.05;;;22.71;69.49
60337;BME280;46978;50.288;28.624;2023-08-06T00:13:25;98412.41;;;22.71;69.54
60337;BME280;46978;50.288;28.624;2023-08-06T00:14:34;98415.91;;;22.71;69.51
60337;BME280;46978;50.288;28.624;2023-08-06T00:15:44;98414.92;;;22.72;69.51
60337;BME280;46978;50.288;28.624;2023-08-06T00:16:52;98414.92;;;22.72;69.54
60337;BME280;46978;50.288;28.624;2023-08-06T00:17:55;98414.92;;;22.72;69.55
60337;BME280;46978;50.288;28.624;2023-08-06T00:19:03;98401.57;;;22.74;69.45
60337;BME280;46978;50.288;28.624;2023-08-06T00:20:06;98395.45;;;22.73;69.25
60337;BME280;46978;50.288;28.624;2023-08-06T00:21:13;98395.45;;;22.73;69.25
60337;BME280;46978;50.288;28.624;2023-08-06T00:22:22;98397.97;;;22.75;69.58
60337;BME280;46978;50.288;28.624;2023-08-06T00:23:27;98402.30;;;22.76;69.64
60337;BME280;46978;50.288;28.624;2023-08-06T00:24:29;98393.25;;;22.79;69.62
60337;BME280;46978;50.288;28.624;2023-08-06T00:25:39;98389.91;;;22.77;69.64
60337;BME280;46978;50.288;28.624;2023-08-06T00:26:47;98391.59;;;22.78;69.62
60337;BME280;46978;50.288;28.624;2023-08-06T00:27:55;98394.23;;;22.78;69.67
60337;BME280;46978;50.288;28.624;2023-08-06T00:29:02;98389.91;;;22.77;69.75
60337;BME280;46978;50.288;28.624;2023-08-06T00:30:08;98396.16;;;22.76;69.83
60337;BME280;46978;50.288;28.624;2023-08-06T00:31:12;98389.08;;;22.76;69.98
60337;BME280;46978;50.288;28.624;2023-08-06T00:32:37;98391.72;;;22.76;69.95
60337;BME280;46978;50.288;28.624;2023-08-06T00:33:41;98388.22;;;22.76;70.01
60337;BME280;46978;50.288;28.624;2023-08-06T00:34:46;98388.95;;;22.78;69.96
60337;BME280;46978;50.288;28.624;2023-08-06T00:35:58;98375.00;;;22.76;69.97
60337;BME280;46978;50.288;28.624;2023-08-06T00:37:07;98379.33;;;22.77;70.07
60337;BME280;46978;50.288;28.624;2023-08-06T00:38:20;98375.72;;;22.78;70.07
60337;BME280;46978;50.288;28.624;2023-08-06T00:39:22;98379.33;;;22.77;70.05
60337;BME280;46978;50.288;28.624;2023-08-06T00:40:32;98377.64;;;22.76;70.11
60337;BME280;46978;50.288;28.624;2023-08-06T00:41:48;98378.63;;;22.74;70.16
60337;BME280;46978;50.288;28.624;2023-08-06T00:42:54;98375.00;;;22.76;70.10
60337;BME280;46978;50.288;28.624;2023-08-06T00:44:10;98371.39;;;22.77;70.13
60337;BME280;46978;50.288;28.624;2023-08-06T00:45:14;98371.52;;;22.75;70.08
60337;BME280;46978;50.288;28.624;2023-08-06T00:46:20;98367.06;;;22.76;70.14
60337;BME280;46978;50.288;28.624;2023-08-06T00:47:26;98366.23;;;22.75;70.15
60337;BME280;46978;50.288;28.624;2023-08-06T00:48:32;98363.72;;;22.73;70.29
60337;BME280;46978;50.288;28.624;2023-08-06T00:49:36;98377.90;;;22.72;70.46
60337;BME280;46978;50.288;28.624;2023-08-06T00:50:47;98369.27;;;22.70;70.53
60337;BME280;46978;50.288;28.624;2023-08-06T00:51:50;98365.80;;;22.70;70.62
60337;BME280;46978;50.288;28.624;2023-08-06T00:53:01;98366.75;;;22.69;70.69
60337;BME280;46978;50.288;28.624;2023-08-06T00:54:09;98366.88;;;22.67;70.83
60337;BME280;46978;50.288;28.624;2023-08-06T00:55:11;98360.03;;;22.65;70.82
60337;BME280;46978;50.288;28.624;2023-08-06T00:56:18;98368.95;;;22.64;70.93
60337;BME280;46978;50.288;28.624;2023-08-06T00:57:26;98367.27;;;22.63;70.96
60337;BME280;46978;50.288;28.624;2023-08-06T00:58:34;98362.81;;;22.63;71.08
60337;BME280;46978;50.288;28.624;2023-08-06T00:59:42;98369.91;;;22.63;71.00
60337;BME280;46978;50.288;28.624;2023-08-06T01:00:51;98357.65;;;22.62;71.18
60337;BME280;46978;50.288;28.624;2023-08-06T01:01:56;98367.27;;;22.63;71.10
60337;BME280;46978;50.288;28.624;2023-08-06T01:03:05;98361.98;;;22.63;71.10
60337;BME280;46978;50.288;28.624;2023-08-06T01:04:11;98365.58;;;22.62;71.14
60337;BME280;46978;50.288;28.624;2023-08-06T01:05:17;98357.65;;;22.62;71.24
60337;BME280;46978;50.288;28.624;2023-08-06T01:06:30;98362.11;;;22.61;71.35
60337;BME280;46978;50.288;28.624;2023-08-06T01:07:58;98366.70;;;22.59;71.39
60337;BME280;46978;50.288;28.624;2023-08-06T01:12:09;98355.39;;;22.57;71.98
60337;BME280;46978;50.288;28.624;2023-08-06T01:13:13;98359.16;;;22.54;71.90
60337;BME280;46978;50.288;28.624;2023-08-06T01:14:32;98360.11;;;22.53;72.11
60337;BME280;46978;50.288;28.624;2023-08-06T01:15:53;98363.84;;;22.51;72.17
60337;BME280;46978;50.288;28.624;2023-08-06T01:17:04;98352.43;;;22.50;72.27
60337;BME280;46978;50.288;28.624;2023-08-06T01:18:13;98354.25;;;22.50;72.35
60337;BME280;46978;50.288;28.624;2023-08-06T01:19:19;98358.80;;;22.48;72.59
60337;BME280;46978;50.288;28.624;2023-08-06T01:20:32;98350.17;;;22.46;72.61
60337;BME280;46978;50.288;28.624;2023-08-06T01:21:32;98355.59;;;22.44;72.74
60337;BME280;46978;50.288;28.624;2023-08-06T01:22:38;98351.26;;;22.43;72.99
60337;BME280;46978;50.288;28.624;2023-08-06T01:23:46;98341.80;;;22.41;72.94
60337;BME280;46978;50.288;28.624;2023-08-06T01:24:52;98352.50;;;22.39;72.96
60337;BME280;46978;50.288;28.624;2023-08-06T01:26:24;98356.95;;;22.38;73.09
60337;BME280;46978;50.288;28.624;2023-08-06T01:27:48;98344.70;;;22.37;73.16
60337;BME280;46978;50.288;28.624;2023-08-06T01:30:26;98351.32;;;22.32;73.59
60337;BME280;46978;50.288;28.624;2023-08-06T01:31:31;98345.30;;;22.30;73.81
60337;BME280;46978;50.288;28.624;2023-08-06T01:32:40;98352.53;;;22.28;73.96
60337;BME280;46978;50.288;28.624;2023-08-06T01:33:46;98349.16;;;22.26;74.15
60337;BME280;46978;50.288;28.624;2023-08-06T01:34:52;98350.27;;;22.23;74.24
60337;BME280;46978;50.288;28.624;2023-08-06T01:35:57;98340.78;;;22.20;74.48
60337;BME280;46978;50.288;28.624;2023-08-06T01:37:03;98343.55;;;22.19;74.47
60337;BME280;46978;50.288;28.624;2023-08-06T01:38:05;98345.62;;;22.15;74.77
60337;BME280;46978;50.288;28.624;2023-08-06T01:39:15;98343.09;;;22.14;74.72
60337;BME280;46978;50.288;28.624;2023-08-06T01:40:22;98349.34;;;22.13;74.94
60337;BME280;46978;50.288;28.624;2023-08-06T01:41:25;98354.75;;;22.11;75.27
60337;BME280;46978;50.288;28.624;2023-08-06T01:42:37;98333.73;;;22.10;75.44
60337;BME280;46978;50.288;28.624;2023-08-06T01:43:49;98346.13;;;22.09;75.55
60337;BME280;46978;50.288;28.624;2023-08-06T01:44:58;98342.62;;;22.09;75.48
60337;BME280;46978;50.288;28.624;2023-08-06T01:46:01;98342.04;;;22.05;75.68
60337;BME280;46978;50.288;28.624;2023-08-06T01:47:05;98345.77;;;22.02;75.75
60337;BME280;46978;50.288;28.624;2023-08-06T01:48:16;98348.41;;;22.02;75.86
60337;BME280;46978;50.288;28.624;2023-08-06T01:49:19;98340.61;;;22.01;76.13
60337;BME280;46978;50.288;28.624;2023-08-06T01:50:23;98336.44;;;21.98;76.22
60337;BME280;46978;50.288;28.624;2023-08-06T01:51:27;98345.44;;;21.96;76.27
60337;BME280;46978;50.288;28.624;2023-08-06T01:52:31;98338.34;;;21.96;76.40
60337;BME280;46978;50.288;28.624;2023-08-06T01:53:36;98346.39;;;21.95;76.56
60337;BME280;46978;50.288;28.624;2023-08-06T01:54:41;98351.67;;;21.95;76.50
60337;BME280;46978;50.288;28.624;2023-08-06T01:55:49;98342.09;;;21.94;76.62
60337;BME280;46978;50.288;28.624;2023-08-06T01:56:55;98348.45;;;21.91;76.78
60337;BME280;46978;50.288;28.624;2023-08-06T01:58:01;98339.83;;;21.89;76.89
60337;BME280;46978;50.288;28.624;2023-08-06T01:59:07;98338.13;;;21.88;77.19
60337;BME280;46978;50.288;28.624;2023-08-06T02:00:13;98347.02;;;21.87;77.13
60337;BME280;46978;50.288;28.624;2023-08-06T02:01:15;98334.79;;;21.86;77.34
60337;BME280;46978;50.288;28.624;2023-08-06T02:02:24;98336.70;;;21.84;77.42
60337;BME280;46978;50.288;28.624;2023-08-06T02:03:28;98336.82;;;21.82;77.48
60337;BME280;46978;50.288;28.624;2023-08-06T02:04:42;98334.30;;;21.81;77.53
60337;BME280;46978;50.288;28.624;2023-08-06T02:05:58;98338.87;;;21.79;77.93
60337;BME280;46978;50.288;28.624;2023-08-06T02:07:03;98330.13;;;21.78;78.00
60337;BME280;46978;50.288;28.624;2023-08-06T02:08:06;98340.81;;;21.77;78.11
60337;BME280;46978;50.288;28.624;2023-08-06T02:09:10;98337.44;;;21.75;78.13
60337;BME280;46978;50.288;28.624;2023-08-06T02:10:17;98341.89;;;21.74;78.25
60337;BME280;46978;50.288;28.624;2023-08-06T02:11:19;98338.55;;;21.72;78.42
60337;BME280;46978;50.288;28.624;2023-08-06T02:12:23;98328.11;;;21.71;78.46
60337;BME280;46978;50.288;28.624;2023-08-06T02:13:29;98335.17;;;21.70;78.60
60337;BME280;46978;50.288;28.624;2023-08-06T02:14:51;98337.11;;;21.68;78.66
60337;BME280;46978;50.288;28.624;2023-08-06T02:15:56;98342.51;;;21.66;78.84
60337;BME280;46978;50.288;28.624;2023-08-06T02:17:01;98332.91;;;21.65;79.15
60337;BME280;46978;50.288;28.624;2023-08-06T02:18:06;98333.88;;;21.64;79.14
60337;BME280;46978;50.288;28.624;2023-08-06T02:19:30;98346.10;;;21.65;79.38
60337;BME280;46978;50.288;28.624;2023-08-06T02:20:41;98337.23;;;21.66;79.23
60337;BME280;46978;50.288;28.624;2023-08-06T02:21:46;98334.59;;;21.66;79.40
60337;BME280;46978;50.288;28.624;2023-08-06T02:22:54;98333.64;;;21.68;79.45
60337;BME280;46978;50.288;28.624;2023-08-06T02:23:59;98351.26;;;21.67;79.37
60337;BME280;46978;50.288;28.624;2023-08-06T02:25:02;98339.87;;;21.66;79.30
60337;BME280;46978;50.288;28.624;2023-08-06T02:26:08;98338.18;;;21.65;79.62
60337;BME280;46978;50.288;28.624;2023-08-06T02:27:11;98345.27;;;21.65;79.51
60337;BME280;46978;50.288;28.624;2023-08-06T02:28:26;98340.11;;;21.63;79.54
60337;BME280;46978;50.288;28.624;2023-08-06T02:29:35;98348.03;;;21.63;79.72
60337;BME280;46978;50.288;28.624;2023-08-06T02:30:51;98345.39;;;21.63;79.90
60337;BME280;46978;50.288;28.624;2023-08-06T02:31:59;98347.20;;;21.63;79.96
60337;BME280;46978;50.288;28.624;2023-08-06T02:33:10;98348.98;;;21.62;80.13
60337;BME280;46978;50.288;28.624;2023-08-06T02:34:19;98354.27;;;21.62;79.91
60337;BME280;46978;50.288;28.624;2023-08-06T02:35:25;98358.59;;;21.63;79.95
60337;BME280;46978;50.288;28.624;2023-08-06T02:36:33;98348.98;;;21.62;79.94
60337;BME280;46978;50.288;28.624;2023-08-06T02:37:55;98350.80;;;21.62;79.98
60337;BME280;46978;50.288;28.624;2023-08-06T02:39:01;98351.75;;;21.61;80.09
60337;BME280;46978;50.288;28.624;2023-08-06T02:40:08;98343.12;;;21.59;80.34
60337;BME280;46978;50.288;28.624;2023-08-06T02:41:15;98355.49;;;21.58;80.50
60337;BME280;46978;50.288;28.624;2023-08-06T02:42:19;98351.05;;;21.59;80.37
60337;BME280;46978;50.288;28.624;2023-08-06T02:43:25;98351.16;;;21.57;80.46
60337;BME280;46978;50.288;28.624;2023-08-06T02:44:32;98346.84;;;21.56;80.55
60337;BME280;46978;50.288;28.624;2023-08-06T02:45:40;98354.76;;;21.56;80.82
60337;BME280;46978;50.288;28.624;2023-08-06T02:46:49;98352.12;;;21.56;80.61
60337;BME280;46978;50.288;28.624;2023-08-06T02:48:01;98354.76;;;21.56;80.60
60337;BME280;46978;50.288;28.624;2023-08-06T02:49:06;98345.89;;;21.57;80.61
60337;BME280;46978;50.288;28.624;2023-08-06T02:50:13;98355.49;;;21.58;80.51
60337;BME280;46978;50.288;28.624;2023-08-06T02:51:25;98352.00;;;21.58;80.51
60337;BME280;46978;50.288;28.624;2023-08-06T02:52:32;98349.36;;;21.58;80.64
60337;BME280;46978;50.288;28.624;2023-08-06T02:53:36;98351.05;;;21.59;80.79
60337;BME280;46978;50.288;28.624;2023-08-06T02:54:50;98349.23;;;21.59;80.84
60337;BME280;46978;50.288;28.624;2023-08-06T02:55:56;98337.72;;;21.60;80.91
60337;BME280;46978;50.288;28.624;2023-08-06T02:57:04;98339.41;;;21.61;80.73
60337;BME280;46978;50.288;28.624;2023-08-06T02:58:09;98341.92;;;21.63;80.63
60337;BME280;46978;50.288;28.624;2023-08-06T02:59:19;98334.84;;;21.63;80.79
60337;BME280;46978;50.288;28.624;2023-08-06T03:00:22;98334.71;;;21.65;80.73
60337;BME280;46978;50.288;28.624;2023-08-06T03:01:28;98338.91;;;21.68;80.56
60337;BME280;46978;50.288;28.624;2023-08-06T03:02:38;98338.80;;;21.69;80.50
60337;BME280;46978;50.288;28.624;2023-08-06T03:03:41;98341.31;;;21.71;80.51
60337;BME280;46978;50.288;28.624;2023-08-06T03:04:47;98337.44;;;21.75;80.29
60337;BME280;46978;50.288;28.624;2023-08-06T03:05:57;98342.47;;;21.78;80.15
60337;BME280;46978;50.288;28.624;2023-08-06T03:07:02;98342.10;;;21.82;79.95
60337;BME280;46978;50.288;28.624;2023-08-06T03:08:07;98333.10;;;21.85;79.81
60337;BME280;46978;50.288;28.624;2023-08-06T03:09:10;98332.02;;;21.88;79.83
60337;BME280;46978;50.288;28.624;2023-08-06T03:10:16;98330.91;;;21.90;79.55
60337;BME280;46978;50.288;28.624;2023-08-06T03:11:23;98329.84;;;21.93;79.42
60337;BME280;46978;50.288;28.624;2023-08-06T03:12:28;98323.48;;;21.95;79.40
60337;BME280;46978;50.288;28.624;2023-08-06T03:13:37;98327.77;;;21.96;79.26
60337;BME280;46978;50.288;28.624;2023-08-06T03:14:42;98329.33;;;21.99;79.09
60337;BME280;46978;50.288;28.624;2023-08-06T03:15:58;98324.75;;;22.01;78.98
60337;BME280;46978;50.288;28.624;2023-08-06T03:17:10;98335.07;;;22.04;79.03
60337;BME280;46978;50.288;28.624;2023-08-06T03:18:13;98324.98;;;22.09;78.78
60337;BME280;46978;50.288;28.624;2023-08-06T03:19:22;98326.39;;;22.13;78.68
60337;BME280;46978;50.288;28.624;2023-08-06T03:20:25;98327.69;;;22.19;78.41
60337;BME280;46978;50.288;28.624;2023-08-06T03:21:29;98328.88;;;22.26;78.14
60337;BME280;46978;50.288;28.624;2023-08-06T03:22:31;98328.52;;;22.31;77.89
60337;BME280;46978;50.288;28.624;2023-08-06T03:23:33;98326.33;;;22.36;77.60
60337;BME280;46978;50.288;28.624;2023-08-06T03:24:41;98322.44;;;22.40;77.54
60337;BME280;46978;50.288;28.624;2023-08-06T03:25:49;98318.84;;;22.41;77.19
60337;BME280;46978;50.288;28.624;2023-08-06T03:26:54;98324.00;;;22.43;77.27
60337;BME280;46978;50.288;28.624;2023-08-06T03:28:01;98331.09;;;22.42;77.19
60337;BME280;46978;50.288;28.624;2023-08-06T03:29:06;98324.00;;;22.43;77.19
60337;BME280;46978;50.288;28.624;2023-08-06T03:30:12;98325.69;;;22.44;77.17
60337;BME280;46978;50.288;28.624;2023-08-06T03:31:14;98318.71;;;22.43;77.13
60337;BME280;46978;50.288;28.624;2023-08-06T03:32:22;98333.23;;;22.48;77.12
60337;BME280;46978;50.288;28.624;2023-08-06T03:33:27;98330.20;;;22.53;76.96
60337;BME280;46978;50.288;28.624;2023-08-06T03:34:31;98327.86;;;22.60;76.64
60337;BME280;46978;50.288;28.624;2023-08-06T03:35:40;98332.37;;;22.69;76.21
60337;BME280;46978;50.288;28.624;2023-08-06T03:36:45;98326.44;;;22.77;75.91
60337;BME280;46978;50.288;28.624;2023-08-06T03:37:51;98316.75;;;22.87;75.69
60337;BME280;46978;50.288;28.624;2023-08-06T03:38:56;98321.95;;;22.98;75.04
60337;BME280;46978;50.288;28.624;2023-08-06T03:39:59;98312.16;;;23.10;74.34
60337;BME280;46978;50.288;28.624;2023-08-06T03:41:04;98313.87;;;23.21;73.87
60337;BME280;46978;50.288;28.624;2023-08-06T03:42:09;98316.69;;;23.39;73.44
60337;BME280;46978;50.288;28.624;2023-08-06T03:43:13;98310.77;;;23.56;72.74
60337;BME280;46978;50.288;28.624;2023-08-06T03:44:21;98311.60;;;23.76;71.83
60337;BME280;46978;50.288;28.624;2023-08-06T03:45:32;98314.59;;;23.93;70.79
60337;BME280;46978;50.288;28.624;2023-08-06T03:46:39;98303.42;;;24.09;69.76
60337;BME280;46978;50.288;28.624;2023-08-06T03:47:48;98309.97;;;24.24;69.39
60337;BME280;46978;50.288;28.624;2023-08-06T03:48:52;98306.05;;;24.38;68.64
60337;BME280;46978;50.288;28.624;2023-08-06T03:49:56;98310.80;;;24.54;67.93
60337;BME280;46978;50.288;28.624;2023-08-06T03:50:59;98309.68;;;24.66;67.78
60337;BME280;46978;50.288;28.624;2023-08-06T03:52:04;98313.70;;;24.80;66.98
60337;BME280;46978;50.288;28.624;2023-08-06T03:53:11;98305.41;;;24.93;66.80
60337;BME280;46978;50.288;28.624;2023-08-06T03:54:13;98318.19;;;25.08;65.83
60337;BME280;46978;50.288;28.624;2023-08-06T03:55:19;98302.20;;;25.17;64.90
60337;BME280;46978;50.288;28.624;2023-08-06T03:56:31;98306.63;;;25.27;64.71
60337;BME280;46978;50.288;28.624;2023-08-06T03:57:34;98308.44;;;25.36;64.06
60337;BME280;46978;50.288;28.624;2023-08-06T03:58:37;98308.41;;;25.46;64.14
60337;BME280;46978;50.288;28.624;2023-08-06T03:59:43;98304.70;;;25.56;63.67
60337;BME280;46978;50.288;28.624;2023-08-06T04:00:46;98295.98;;;25.64;63.23
60337;BME280;46978;50.288;28.624;2023-08-06T04:01:51;98300.40;;;25.73;62.92
60337;BME280;46978;50.288;28.624;2023-08-06T04:02:53;98288.31;;;25.79;62.20
60337;BME280;46978;50.288;28.624;2023-08-06T04:03:56;98299.34;;;25.84;62.03
60337;BME280;46978;50.288;28.624;2023-08-06T04:05:01;98292.41;;;25.91;62.16
60337;BME280;46978;50.288;28.624;2023-08-06T04:06:05;98293.22;;;26.02;61.43
60337;BME280;46978;50.288;28.624;2023-08-06T04:07:11;98297.77;;;26.09;61.39
60337;BME280;46978;50.288;28.624;2023-08-06T04:08:20;98297.98;;;26.16;61.04
60337;BME280;46978;50.288;28.624;2023-08-06T04:09:22;98292.75;;;26.24;60.77
60337;BME280;46978;50.288;28.624;2023-08-06T04:10:27;98292.80;;;26.33;60.60
60337;BME280;46978;50.288;28.624;2023-08-06T04:11:31;98288.36;;;26.41;60.28
60337;BME280;46978;50.288;28.624;2023-08-06T04:12:35;98298.06;;;26.51;60.15
60337;BME280;46978;50.288;28.624;2023-08-06T04:13:42;98285.66;;;26.59;59.42
60337;BME280;46978;50.288;28.624;2023-08-06T04:14:49;98283.93;;;26.68;59.28
60337;BME280;46978;50.288;28.624;2023-08-06T04:15:53;98289.45;;;26.75;59.02
60337;BME280;46978;50.288;28.624;2023-08-06T04:16:54;98290.81;;;26.79;58.67
60337;BME280;46978;50.288;28.624;2023-08-06T04:17:56;98280.16;;;26.79;58.11
60337;BME280;46978;50.288;28.624;2023-08-06T04:18:58;98289.64;;;26.81;58.32
60337;BME280;46978;50.288;28.624;2023-08-06T04:20:01;98282.86;;;26.87;58.21
60337;BME280;46978;50.288;28.624;2023-08-06T04:21:03;98279.56;;;26.93;57.96
60337;BME280;46978;50.288;28.624;2023-08-06T04:22:05;98292.05;;;26.93;58.11
60337;BME280;46978;50.288;28.624;2023-08-06T04:23:08;98278.58;;;26.94;57.68
60337;BME280;46978;50.288;28.624;2023-08-06T04:24:10;98283.43;;;26.99;57.59
60337;BME280;46978;50.288;28.624;2023-08-06T04:25:12;98279.59;;;27.01;57.60
60337;BME280;46978;50.288;28.624;2023-08-06T04:26:15;98278.95;;;27.08;57.67
60337;BME280;46978;50.288;28.624;2023-08-06T04:27:20;98276.34;;;27.16;57.06
60337;BME280;46978;50.288;28.624;2023-08-06T04:28:29;98276.34;;;27.16;57.06
60337;BME280;46978;50.288;28.624;2023-08-06T04:29:43;98278.20;;;27.24;57.10
60337;BME280;46978;50.288;28.624;2023-08-06T04:30:53;98272.92;;;27.32;56.91
60337;BME280;46978;50.288;28.624;2023-08-06T04:31:56;98277.77;;;27.36;56.77
60337;BME280;46978;50.288;28.624;2023-08-06T04:33:02;98260.31;;;27.42;56.61
60337;BME280;46978;50.288;28.624;2023-08-06T04:34:10;98268.63;;;27.39;56.55
60337;BME280;46978;50.288;28.624;2023-08-06T04:35:15;98267.61;;;27.40;56.26
60337;BME280;46978;50.288;28.624;2023-08-06T04:36:17;98266.62;;;27.41;56.48
60337;BME280;46978;50.288;28.624;2023-08-06T04:37:20;98263.31;;;27.47;56.33
60337;BME280;46978;50.288;28.624;2023-08-06T04:38:25;98258.31;;;27.52;56.16
60337;BME280;46978;50.288;28.624;2023-08-06T04:39:33;98255.33;;;27.55;55.93
60337;BME280;46978;50.288;28.624;2023-08-06T04:40:42;98257.98;;;27.55;55.63
60337;BME280;46978;50.288;28.624;2023-08-06T04:41:45;98253.68;;;27.54;55.93
60337;BME280;46978;50.288;28.624;2023-08-06T04:42:48;98244.34;;;27.59;55.60
60337;BME280;46978;50.288;28.624;2023-08-06T04:43:57;98240.03;;;27.58;55.48
60337;BME280;46978;50.288;28.624;2023-08-06T04:45:06;98242.86;;;27.56;55.53
60337;BME280;46978;50.288;28.624;2023-08-06T04:46:09;98238.19;;;27.58;55.88
60337;BME280;46978;50.288;28.624;2023-08-06T04:47:11;98228.35;;;27.59;55.41
60337;BME280;46978;50.288;28.624;2023-08-06T04:48:16;98228.35;;;27.59;55.41
60337;BME280;46978;50.288;28.624;2023-08-06T04:49:19;98235.03;;;27.63;55.61
60337;BME280;46978;50.288;28.624;2023-08-06T04:50:24;98234.38;;;27.61;55.20
60337;BME280;46978;50.288;28.624;2023-08-06T04:51:28;98233.68;;;27.59;55.49
60337;BME280;46978;50.288;28.624;2023-08-06T04:52:35;98233.35;;;27.62;55.73
60337;BME280;46978;50.288;28.624;2023-08-06T04:53:40;98229.05;;;27.61;55.22
60337;BME280;46978;50.288;28.624;2023-08-06T04:54:44;98225.69;;;27.59;55.43
60337;BME280;46978;50.288;28.624;2023-08-06T04:55:49;98218.71;;;27.58;55.47
60337;BME280;46978;50.288;28.624;2023-08-06T04:56:51;98220.52;;;27.57;55.49
60337;BME280;46978;50.288;28.624;2023-08-06T04:57:52;98226.70;;;27.58;55.66
60337;BME280;46978;50.288;28.624;2023-08-06T04:58:56;98218.88;;;27.56;55.43
60337;BME280;46978;50.288;28.624;2023-08-06T05:00:02;98220.03;;;27.53;55.64
60337;BME280;46978;50.288;28.624;2023-08-06T05:01:12;98224.53;;;27.53;55.56
60337;BME280;46978;50.288;28.624;2023-08-06T05:02:22;98216.87;;;27.50;56.08
60337;BME280;46978;50.288;28.624;2023-08-06T05:03:29;98221.88;;;27.53;55.97
60337;BME280;46978;50.288;28.624;2023-08-06T05:04:39;98213.68;;;27.46;55.80
60337;BME280;46978;50.288;28.624;2023-08-06T05:05:45;98211.83;;;27.39;56.25
60337;BME280;46978;50.288;28.624;2023-08-06T05:06:48;98214.66;;;27.37;56.33
60337;BME280;46978;50.288;28.624;2023-08-06T05:07:50;98213.84;;;27.36;56.40
60337;BME280;46978;50.288;28.624;2023-08-06T05:08:53;98208.51;;;27.36;56.51
60337;BME280;46978;50.288;28.624;2023-08-06T05:09:55;98207.16;;;27.32;56.30
60337;BME280;46978;50.288;28.624;2023-08-06T05:10:58;98208.47;;;27.28;56.51
60337;BME280;46978;50.288;28.624;2023-08-06T05:12:01;98202.61;;;27.25;56.90
60337;BME280;46978;50.288;28.624;2023-08-06T05:13:09;98201.62;;;27.17;57.08
60337;BME280;46978;50.288;28.624;2023-08-06T05:14:15;98200.10;;;27.15;57.86
60337;BME280;46978;50.288;28.624;2023-08-06T05:15:20;98207.43;;;27.13;57.40
60337;BME280;46978;50.288;28.624;2023-08-06T05:16:24;98199.07;;;27.08;57.61
60337;BME280;46978;50.288;28.624;2023-08-06T05:17:30;98200.09;;;27.07;57.75
60337;BME280;46978;50.288;28.624;2023-08-06T05:18:31;98188.75;;;27.05;57.84
60337;BME280;46978;50.288;28.624;2023-08-06T05:19:34;98196.07;;;27.03;57.90
60337;BME280;46978;50.288;28.624;2023-08-06T05:20:41;98189.72;;;26.95;58.01
60337;BME280;46978;50.288;28.624;2023-08-06T05:21:43;98191.55;;;26.95;58.01
60337;BME280;46978;50.288;28.624;2023-08-06T05:23:00;98196.05;;;26.94;58.21
60337;BME280;46978;50.288;28.624;2023-08-06T05:24:03;98185.08;;;26.97;58.21
60337;BME280;46978;50.288;28.624;2023-08-06T05:25:10;98194.87;;;26.97;57.81
60337;BME280;46978;50.288;28.624;2023-08-06T05:26:12;98199.05;;;26.99;58.06
60337;BME280;46978;50.288;28.624;2023-08-06T05:27:16;98195.89;;;26.96;58.07
60337;BME280;46978;50.288;28.624;2023-08-06T05:28:23;98184.92;;;26.99;58.19
60337;BME280;46978;50.288;28.624;2023-08-06T05:29:27;98182.76;;;27.03;58.28
60337;BME280;46978;50.288;28.624;2023-08-06T05:30:41;98189.44;;;27.07;57.91
60337;BME280;46978;50.288;28.624;2023-08-06T05:31:46;98185.44;;;27.11;57.72
60337;BME280;46978;50.288;28.624;2023-08-06T05:32:50;98189.45;;;27.15;57.92
60337;BME280;46978;50.288;28.624;2023-08-06T05:33:52;98178.64;;;27.16;57.87
60337;BME280;46978;50.288;28.624;2023-08-06T05:34:58;98182.33;;;27.24;57.86
60337;BME280;46978;50.288;28.624;2023-08-06T05:36:00;98176.67;;;27.27;57.33
60337;BME280;46978;50.288;28.624;2023-08-06T05:37:05;98177.33;;;27.29;57.57
60337;BME280;46978;50.288;28.624;2023-08-06T05:38:10;98177.03;;;27.32;57.25
60337;BME280;46978;50.288;28.624;2023-08-06T05:39:14;98175.55;;;27.38;57.48
60337;BME280;46978;50.288;28.624;2023-08-06T05:40:19;98176.55;;;27.45;57.60
60337;BME280;46978;50.288;28.624;2023-08-06T05:41:29;98183.55;;;27.54;57.67
60337;BME280;46978;50.288;28.624;2023-08-06T05:42:34;98166.89;;;27.60;56.85
60337;BME280;46978;50.288;28.624;2023-08-06T05:43:42;98180.58;;;27.65;56.52
60337;BME280;46978;50.288;28.624;2023-08-06T05:44:45;98174.06;;;27.68;56.30
60337;BME280;46978;50.288;28.624;2023-08-06T05:45:54;98168.73;;;27.68;56.06
60337;BME280;46978;50.288;28.624;2023-08-06T05:47:00;98164.91;;;27.70;56.47
60337;BME280;46978;50.288;28.624;2023-08-06T05:48:09;98166.91;;;27.77;56.32
60337;BME280;46978;50.288;28.624;2023-08-06T05:49:16;98168.55;;;27.78;55.75
60337;BME280;46978;50.288;28.624;2023-08-06T05:50:24;98172.73;;;27.80;55.93
60337;BME280;46978;50.288;28.624;2023-08-06T05:51:28;98158.41;;;27.81;56.04
60337;BME280;46978;50.288;28.624;2023-08-06T05:52:36;98160.41;;;27.87;56.39
60337;BME280;46978;50.288;28.624;2023-08-06T05:53:38;98163.73;;;27.98;56.37